createdAt,value
2022-12-03T00:00:18.219Z,88.46
2022-12-03T00:03:21.031Z,89.23
2022-12-03T00:06:24.128Z,88.82
2022-12-03T00:09:26.891Z,88.27
2022-12-03T00:12:29.528Z,88.91
2022-12-03T00:15:33.612Z,89.95
2022-12-03T00:18:36.380Z,88.16
2022-12-03T00:21:39.097Z,89.21
2022-12-03T00:24:41.795Z,88.28
2022-12-03T00:27:44.604Z,89.26
2022-12-03T00:30:48.969Z,88.49
2022-12-03T00:33:52.179Z,88.50
2022-12-03T00:36:54.872Z,88.92
2022-12-03T00:39:57.982Z,89.11
2022-12-03T00:43:00.701Z,88.82
2022-12-03T00:46:04.810Z,89.60
2022-12-03T00:49:07.705Z,89.00
2022-12-03T00:52:10.396Z,88.30
2022-12-03T00:55:13.394Z,88.78
2022-12-03T00:58:16.086Z,89.69
2022-12-03T01:01:20.238Z,89.46
2022-12-03T01:04:23.112Z,89.47
2022-12-03T01:07:25.954Z,89.00
2022-12-03T01:10:28.719Z,88.77
2022-12-03T01:13:31.399Z,89.37
2022-12-03T01:16:36.164Z,89.58
2022-12-03T01:19:41.271Z,88.92
2022-12-03T01:22:47.723Z,89.28
2022-12-03T01:25:50.462Z,89.45
2022-12-03T01:28:53.666Z,89.57
2022-12-03T01:32:15.076Z,88.81
2022-12-03T01:35:18.012Z,89.71
2022-12-03T01:38:21.059Z,88.50
2022-12-03T01:41:26.008Z,88.80
2022-12-03T01:44:31.324Z,87.75
2022-12-03T01:47:37.795Z,87.76
2022-12-03T01:50:40.506Z,87.93
2022-12-03T01:53:44.753Z,87.88
2022-12-03T01:56:48.337Z,87.85
2022-12-03T01:59:53.020Z,88.84
2022-12-03T02:02:58.740Z,87.58
2022-12-03T02:06:01.471Z,87.72
2022-12-03T02:09:08.414Z,87.98
2022-12-03T02:12:11.433Z,87.32
2022-12-03T02:15:14.558Z,87.23
2022-12-03T02:18:19.526Z,87.37
2022-12-03T02:21:36.923Z,88.54
2022-12-03T02:24:47.978Z,88.68
2022-12-03T02:27:54.849Z,87.71
2022-12-03T02:30:57.668Z,88.23
2022-12-03T02:34:00.829Z,87.92
2022-12-03T02:37:05.204Z,87.36
2022-12-03T02:40:12.264Z,86.76
2022-12-03T02:43:19.042Z,87.72
2022-12-03T02:46:21.754Z,87.44
2022-12-03T02:49:24.533Z,87.20
2022-12-03T02:52:27.858Z,86.23
2022-12-03T02:55:36.754Z,86.89
2022-12-03T03:01:51.956Z,86.85
2022-12-03T03:04:55.257Z,85.87
2022-12-03T03:07:59.619Z,86.79
2022-12-03T03:11:03.227Z,86.53
2022-12-03T03:14:05.952Z,85.92
2022-12-03T03:17:09.918Z,86.66
2022-12-03T03:20:13.413Z,86.43
2022-12-03T03:23:17.993Z,86.09
2022-12-03T03:26:20.844Z,86.11
2022-12-03T03:29:23.681Z,85.88
2022-12-03T03:32:29.014Z,88.35
2022-12-03T03:35:31.986Z,87.85
2022-12-03T03:38:35.560Z,87.91
2022-12-03T03:41:39.296Z,86.89
2022-12-03T03:44:42.169Z,86.35
2022-12-03T03:47:46.436Z,85.59
2022-12-03T03:50:49.868Z,86.34
2022-12-03T03:53:53.013Z,84.78
2022-12-03T03:56:55.725Z,85.54
2022-12-03T03:59:59.343Z,85.77
2022-12-03T04:03:04.157Z,84.86
2022-12-03T04:06:07.465Z,85.84
2022-12-03T04:09:10.103Z,84.89
2022-12-03T04:12:30.897Z,85.93
2022-12-03T04:15:33.525Z,85.55
2022-12-03T04:18:46.427Z,85.43
2022-12-03T04:22:06.437Z,85.81
2022-12-03T04:25:28.687Z,85.32
2022-12-03T04:28:48.840Z,84.43
2022-12-03T04:32:09.173Z,85.63
2022-12-03T04:35:45.361Z,85.85
2022-12-03T04:38:48.021Z,85.51
2022-12-03T04:41:50.648Z,85.90
2022-12-03T04:44:53.526Z,84.95
2022-12-03T04:47:56.413Z,84.79
2022-12-03T04:51:00.490Z,85.14
2022-12-03T04:54:03.892Z,85.35
2022-12-03T04:57:08.130Z,84.41
2022-12-03T05:00:12.215Z,86.11
2022-12-03T05:03:14.856Z,84.84
2022-12-03T05:06:18.824Z,84.05
2022-12-03T05:09:21.796Z,83.88
2022-12-03T05:12:24.426Z,83.71
2022-12-03T05:15:27.068Z,84.79
2022-12-03T05:18:30.415Z,84.92
2022-12-03T05:21:34.678Z,84.55
2022-12-03T05:24:37.290Z,84.74
2022-12-03T05:27:39.971Z,85.21
2022-12-03T05:30:42.746Z,84.01
2022-12-03T05:33:45.398Z,84.26
2022-12-03T05:36:49.368Z,84.37
2022-12-03T05:39:52.223Z,83.80
2022-12-03T05:42:54.903Z,83.72
2022-12-03T05:45:57.599Z,83.44
2022-12-03T05:49:00.283Z,83.70
2022-12-03T05:52:04.633Z,84.13
2022-12-03T05:55:07.916Z,84.74
2022-12-03T05:58:11.630Z,83.30
2022-12-03T06:01:14.287Z,84.09
2022-12-03T06:04:16.895Z,84.17
2022-12-03T06:07:20.833Z,83.13
2022-12-03T06:10:25.122Z,84.13
2022-12-03T06:13:27.740Z,85.21
2022-12-03T06:16:30.469Z,84.19
2022-12-03T06:19:33.137Z,83.29
2022-12-03T06:22:37.092Z,84.21
2022-12-03T06:25:39.703Z,83.66
2022-12-03T06:28:46.182Z,83.27
2022-12-03T06:31:48.810Z,82.52
2022-12-03T06:34:51.782Z,83.72
2022-12-03T06:37:55.996Z,83.30
2022-12-03T06:40:58.608Z,82.78
2022-12-03T06:44:01.368Z,83.48
2022-12-03T06:47:04.134Z,82.48
2022-12-03T06:50:08.697Z,83.23
2022-12-03T06:53:12.671Z,82.46
2022-12-03T06:56:17.871Z,82.11
2022-12-03T06:59:24.050Z,83.70
2022-12-03T07:02:26.736Z,83.15
2022-12-03T07:05:29.403Z,83.42
2022-12-03T07:08:33.333Z,82.94
2022-12-03T07:11:40.654Z,83.42
2022-12-03T07:14:43.318Z,82.44
2022-12-03T07:17:45.949Z,83.34
2022-12-03T07:20:48.845Z,82.78
2022-12-03T07:23:52.856Z,84.07
2022-12-03T07:26:55.593Z,83.92
2022-12-03T07:29:58.246Z,85.52
2022-12-03T07:33:00.864Z,85.17
2022-12-03T07:36:03.472Z,84.81
2022-12-03T07:39:07.566Z,83.74
2022-12-03T07:42:10.284Z,84.42
2022-12-03T07:45:12.887Z,83.49
2022-12-03T07:48:15.597Z,83.41
2022-12-03T07:51:18.200Z,83.80
2022-12-03T07:54:22.415Z,83.89
2022-12-03T07:57:25.049Z,83.55
2022-12-03T08:00:28.211Z,83.82
2022-12-03T08:03:30.957Z,84.36
2022-12-03T08:06:33.611Z,83.72
2022-12-03T08:09:40.466Z,83.58
2022-12-03T08:12:43.075Z,83.42
2022-12-03T08:15:45.883Z,83.60
2022-12-03T08:18:49.628Z,84.25
2022-12-03T08:21:56.496Z,83.39
2022-12-03T08:25:03.670Z,83.06
2022-12-03T08:28:13.376Z,83.62
2022-12-03T08:31:19.904Z,83.57
2022-12-03T08:34:24.521Z,83.92
2022-12-03T08:37:27.169Z,83.38
2022-12-03T08:40:36.161Z,83.03
2022-12-03T08:43:41.988Z,82.84
2022-12-03T08:46:45.338Z,83.32
2022-12-03T08:49:54.859Z,82.74
2022-12-03T08:53:01.383Z,82.89
2022-12-03T08:56:13.549Z,83.31
2022-12-03T08:59:26.685Z,84.56
2022-12-03T09:02:34.130Z,82.62
2022-12-03T09:05:37.336Z,83.09
2022-12-03T09:08:39.945Z,83.53
2022-12-03T09:11:44.241Z,82.37
2022-12-03T09:14:47.012Z,82.33
2022-12-03T09:17:49.885Z,81.61
2022-12-03T09:20:52.507Z,81.36
2022-12-03T09:23:55.137Z,81.81
2022-12-03T09:26:59.107Z,81.33
2022-12-03T09:30:01.842Z,82.04
2022-12-03T09:33:04.561Z,81.74
2022-12-03T09:36:07.457Z,80.30
2022-12-03T09:39:10.114Z,81.46
2022-12-03T09:42:14.159Z,81.28
2022-12-03T09:45:17.542Z,81.49
2022-12-03T09:48:21.643Z,81.18
2022-12-03T09:51:25.785Z,81.42
2022-12-03T09:54:29.990Z,80.72
2022-12-03T09:57:34.009Z,82.11
2022-12-03T10:00:36.633Z,81.73
2022-12-03T10:03:42.970Z,82.89
2022-12-03T10:06:46.406Z,81.49
2022-12-03T10:09:49.245Z,82.94
2022-12-03T10:12:53.852Z,82.68
2022-12-03T10:15:58.486Z,80.78
2022-12-03T10:19:02.072Z,81.93
2022-12-03T10:22:04.750Z,82.45
2022-12-03T10:25:10.440Z,81.28
2022-12-03T10:28:14.439Z,82.38
2022-12-03T10:31:17.114Z,79.23
2022-12-03T10:34:25.898Z,80.65
2022-12-03T10:37:28.532Z,80.33
2022-12-03T10:40:33.021Z,80.41
2022-12-03T10:43:36.976Z,78.14
2022-12-03T10:46:39.724Z,78.72
2022-12-03T10:49:43.199Z,77.44
2022-12-03T10:52:47.004Z,80.87
2022-12-03T10:55:52.281Z,78.69
2022-12-03T10:58:56.470Z,78.38
2022-12-03T11:01:59.212Z,79.20
2022-12-03T11:05:01.918Z,77.45
2022-12-03T11:08:05.081Z,78.08
2022-12-03T11:11:16.846Z,79.04
2022-12-03T11:14:57.589Z,75.40
2022-12-03T11:18:01.741Z,75.87
2022-12-03T11:21:06.555Z,77.14
2022-12-03T11:24:26.794Z,77.69
2022-12-03T11:27:29.452Z,78.71
2022-12-03T11:31:02.126Z,80.01
2022-12-03T11:34:49.835Z,79.54
2022-12-03T11:37:54.244Z,77.81
2022-12-03T11:41:10.456Z,78.91
2022-12-03T11:44:32.037Z,79.13
2022-12-03T11:47:39.465Z,80.94
2022-12-03T11:50:43.826Z,77.52
2022-12-03T11:53:48.229Z,77.35
2022-12-03T11:56:52.816Z,78.09
2022-12-03T12:00:07.708Z,78.39
2022-12-03T12:03:24.239Z,78.04
2022-12-03T12:06:27.069Z,76.50
2022-12-03T12:09:50.521Z,78.04
2022-12-03T12:12:55.065Z,77.40
2022-12-03T12:15:58.221Z,77.68
2022-12-03T12:19:31.283Z,78.06
2022-12-03T12:22:33.913Z,78.41
2022-12-03T12:25:40.651Z,79.04
2022-12-03T12:28:43.263Z,78.71
2022-12-03T12:31:50.782Z,78.53
2022-12-03T12:35:01.226Z,80.27
2022-12-03T12:38:14.627Z,78.89
2022-12-03T12:41:18.628Z,79.83
2022-12-03T12:44:23.326Z,79.33
2022-12-03T12:47:26.208Z,78.43
2022-12-03T12:50:28.864Z,77.57
2022-12-03T12:53:33.262Z,77.96
2022-12-03T12:56:37.582Z,79.44
2022-12-03T12:59:40.522Z,78.48
2022-12-03T13:02:46.713Z,77.77
2022-12-03T13:05:50.868Z,78.42
2022-12-03T13:08:54.534Z,78.74
2022-12-03T13:12:00.444Z,79.73
2022-12-03T13:15:03.219Z,78.56
2022-12-03T13:18:20.855Z,78.46
2022-12-03T13:21:26.538Z,78.62
2022-12-03T13:24:35.108Z,78.75
2022-12-03T13:27:39.071Z,78.70
2022-12-03T13:30:41.739Z,78.84
2022-12-03T13:33:44.406Z,78.55
2022-12-03T13:36:53.571Z,79.03
2022-12-03T13:40:10.387Z,78.77
2022-12-03T13:43:16.808Z,78.29
2022-12-03T13:46:19.666Z,79.00
2022-12-03T13:49:24.898Z,78.89
2022-12-03T13:52:27.915Z,78.89
2022-12-03T13:55:32.159Z,78.35
2022-12-03T13:58:36.168Z,77.64
2022-12-03T14:01:38.844Z,78.28
2022-12-03T14:04:41.684Z,78.74
2022-12-03T14:07:44.377Z,79.11
2022-12-03T14:10:47.172Z,78.98
2022-12-03T14:13:51.146Z,80.75
2022-12-03T14:16:59.540Z,80.04
2022-12-03T14:20:03.748Z,80.20
2022-12-03T14:23:06.417Z,79.43
2022-12-03T14:26:09.069Z,79.41
2022-12-03T14:29:13.116Z,79.48
2022-12-03T14:32:15.796Z,78.02
2022-12-03T14:35:18.607Z,78.27
2022-12-03T14:38:21.262Z,77.70
2022-12-03T14:41:41.636Z,79.35
2022-12-03T14:44:47.255Z,80.11
2022-12-03T14:47:49.916Z,80.53
2022-12-03T14:50:52.520Z,78.43
2022-12-03T14:53:55.143Z,78.72
2022-12-03T14:56:57.864Z,79.10
2022-12-03T15:00:01.888Z,79.51
2022-12-03T15:03:04.656Z,80.06
2022-12-03T15:06:07.818Z,79.85
2022-12-03T15:09:11.063Z,79.03
2022-12-03T15:12:13.742Z,80.25
2022-12-03T15:15:17.823Z,80.50
2022-12-03T15:18:20.430Z,79.89
2022-12-03T15:21:23.045Z,79.04
2022-12-03T15:24:25.644Z,79.89
2022-12-03T15:27:28.296Z,80.80
2022-12-03T15:30:35.270Z,79.84
2022-12-03T15:33:37.873Z,80.86
2022-12-03T15:36:40.519Z,81.45
2022-12-03T15:39:48.386Z,80.33
2022-12-03T15:42:51.249Z,80.12
2022-12-03T15:45:55.519Z,81.01
2022-12-03T15:49:21.983Z,81.38
2022-12-03T15:52:24.630Z,81.13
2022-12-03T15:55:27.285Z,80.92
2022-12-03T15:58:29.949Z,81.70
2022-12-03T16:01:32.827Z,81.44
2022-12-03T16:04:37.010Z,80.64
2022-12-03T16:07:40.020Z,80.99
2022-12-03T16:10:42.813Z,81.75
2022-12-03T16:13:45.491Z,81.77
2022-12-03T16:16:48.163Z,81.74
2022-12-03T16:19:52.560Z,81.78
2022-12-03T16:22:56.223Z,81.50
2022-12-03T16:25:58.851Z,82.31
2022-12-03T16:29:01.604Z,82.23
2022-12-03T16:32:04.361Z,82.62
2022-12-03T16:35:09.057Z,81.32
2022-12-03T16:38:11.672Z,81.27
2022-12-03T16:41:14.299Z,81.72
2022-12-03T16:44:32.464Z,82.07
2022-12-03T16:47:35.342Z,82.15
2022-12-03T16:50:39.957Z,81.62
2022-12-03T16:53:42.748Z,82.33
2022-12-03T16:56:45.461Z,83.24
2022-12-03T16:59:48.174Z,81.90
2022-12-03T17:02:50.895Z,82.21
2022-12-03T17:05:54.893Z,81.65
2022-12-03T17:08:57.515Z,82.38
2022-12-03T17:12:00.142Z,81.82
2022-12-03T17:15:02.767Z,82.00
2022-12-03T17:18:05.672Z,81.22
2022-12-03T17:21:09.629Z,81.92
2022-12-03T17:24:12.267Z,81.39
2022-12-03T17:27:15.589Z,81.01
2022-12-03T17:30:18.737Z,80.80
2022-12-03T17:33:21.359Z,81.63
2022-12-03T17:36:25.697Z,81.64
2022-12-03T17:39:28.385Z,79.95
2022-12-03T17:42:31.043Z,80.79
2022-12-03T17:45:33.652Z,79.90
2022-12-03T17:48:36.659Z,79.22
2022-12-03T17:51:40.632Z,79.35
2022-12-03T17:55:09.232Z,79.44
2022-12-03T17:58:05.931Z,79.38
2022-12-03T18:01:10.368Z,79.29
2022-12-03T18:04:13.573Z,79.43
2022-12-03T18:07:17.597Z,78.38
2022-12-03T18:10:20.249Z,80.05
2022-12-03T18:13:22.914Z,79.72
2022-12-03T18:16:25.960Z,79.45
2022-12-03T18:19:28.610Z,80.60
2022-12-03T18:22:32.700Z,80.28
2022-12-03T18:25:35.379Z,79.78
2022-12-03T18:28:38.757Z,80.01
2022-12-03T18:31:41.356Z,80.44
2022-12-03T18:34:44.193Z,81.20
2022-12-03T18:37:50.317Z,80.88
2022-12-03T18:40:56.976Z,80.47
2022-12-03T18:43:59.597Z,81.58
2022-12-03T18:47:02.537Z,80.63
2022-12-03T18:50:06.396Z,80.78
2022-12-03T18:53:12.692Z,81.00
2022-12-03T18:56:15.802Z,81.97
2022-12-03T18:59:18.389Z,81.30
2022-12-03T19:05:44.794Z,81.17
2022-12-03T19:08:53.890Z,81.38
2022-12-03T19:11:56.514Z,81.59
2022-12-03T19:14:59.129Z,81.85
2022-12-03T19:18:01.735Z,82.22
2022-12-03T19:21:08.112Z,81.79
2022-12-03T19:24:27.534Z,81.35
2022-12-03T19:27:30.980Z,81.92
2022-12-03T19:30:33.648Z,80.96
2022-12-03T19:33:36.431Z,81.63
2022-12-03T19:36:39.047Z,82.15
2022-12-03T19:39:43.149Z,81.70
2022-12-03T19:42:45.746Z,80.24
2022-12-03T19:45:48.392Z,79.41
2022-12-03T19:48:51.329Z,80.69
2022-12-03T19:51:53.994Z,79.86
2022-12-03T19:54:57.957Z,79.78
2022-12-03T19:58:00.591Z,80.33
2022-12-03T20:01:07.788Z,79.68
2022-12-03T20:04:12.343Z,79.58
2022-12-03T20:07:14.977Z,80.64
2022-12-03T20:10:19.168Z,78.98
2022-12-03T20:13:21.771Z,79.89
2022-12-03T20:16:25.503Z,78.89
2022-12-03T20:19:28.190Z,78.74
2022-12-03T20:22:30.810Z,80.35
2022-12-03T20:25:37.617Z,78.35
2022-12-03T20:28:41.274Z,77.86
2022-12-03T20:31:43.939Z,77.73
2022-12-03T20:34:46.917Z,77.29
2022-12-03T20:37:49.546Z,78.10
2022-12-03T20:40:53.820Z,77.59
2022-12-03T20:43:56.601Z,77.97
2022-12-03T20:46:59.258Z,77.32
2022-12-03T20:50:01.897Z,77.46
2022-12-03T20:53:23.748Z,77.93
2022-12-03T20:56:31.404Z,78.69
2022-12-03T20:59:34.079Z,78.33
2022-12-03T21:02:38.330Z,78.71
2022-12-03T21:05:42.476Z,78.28
2022-12-03T21:08:45.860Z,78.18
2022-12-03T21:11:49.977Z,77.92
2022-12-03T21:14:52.604Z,77.62
2022-12-03T21:17:55.327Z,78.64
2022-12-03T21:21:00.720Z,78.75
2022-12-03T21:24:03.364Z,78.32
2022-12-03T21:27:07.343Z,78.54
2022-12-03T21:30:10.520Z,78.26
2022-12-03T21:33:13.161Z,78.63
2022-12-03T21:36:16.909Z,79.47
2022-12-03T21:39:19.847Z,78.81
2022-12-03T21:42:36.631Z,78.19
2022-12-03T21:45:40.783Z,79.47
2022-12-03T21:48:43.684Z,78.72
2022-12-03T21:51:46.688Z,78.22
2022-12-03T21:54:49.379Z,79.09
2022-12-03T21:57:53.463Z,79.16
2022-12-03T22:00:56.168Z,78.79
2022-12-03T22:03:58.872Z,78.23
2022-12-03T22:07:01.519Z,78.74
2022-12-03T22:10:04.323Z,80.31
2022-12-03T22:13:08.562Z,79.45
2022-12-03T22:16:13.250Z,79.08
2022-12-03T22:19:15.889Z,78.93
2022-12-03T22:22:18.804Z,78.95
2022-12-03T22:25:21.475Z,79.94
2022-12-03T22:28:25.486Z,80.44
2022-12-03T22:31:28.170Z,80.58
2022-12-03T22:34:30.914Z,80.09
2022-12-03T22:37:33.656Z,79.13
2022-12-03T22:40:36.302Z,80.03
2022-12-03T22:43:40.547Z,80.24
2022-12-03T22:46:43.342Z,79.57
2022-12-03T22:49:46.050Z,78.83
2022-12-03T22:52:48.644Z,79.80
2022-12-03T22:55:55.957Z,79.89
2022-12-03T22:59:00.112Z,79.55
2022-12-03T23:02:02.752Z,79.32
2022-12-03T23:05:06.756Z,80.05
2022-12-03T23:08:11.780Z,81.14
2022-12-03T23:11:14.791Z,80.95
2022-12-03T23:14:18.800Z,80.44
2022-12-03T23:17:21.466Z,81.07
2022-12-03T23:20:24.388Z,80.74
2022-12-03T23:23:28.969Z,80.55
2022-12-03T23:26:34.136Z,80.17
2022-12-03T23:29:38.096Z,80.80
2022-12-03T23:32:41.916Z,81.10
2022-12-03T23:35:44.643Z,81.19
2022-12-03T23:38:47.769Z,81.04
2022-12-03T23:41:50.924Z,82.51
2022-12-03T23:44:54.940Z,81.64
2022-12-03T23:47:58.466Z,81.26
2022-12-03T23:51:06.125Z,80.09
2022-12-03T23:54:08.767Z,81.62
2022-12-03T23:57:12.568Z,80.28
